Time;durP1;ratioP1;P1;durP2;ratioP2;P2;SDS_P1;SDS_P2;PMS_P1;PMS_P2;Temp;Humidity;BMP_temperature;BMP_pressure;BME280_temperature;BME280_humidity;BME280_pressure;Samples;Min_cycle;Max_cycle;Signal;HPM_P1;HPM_P2
2022/02/17 00:00:42;;;;;;;0.10;0.10;;;;;;;8.46;71.29;99261.06;7367383;19;20007;-61
2022/02/17 00:03:08;;;;;;;0.10;0.10;;;;;;;8.48;71.26;99280.06;7361086;19;20026;-61
2022/02/17 00:05:34;;;;;;;0.00;0.00;;;;;;;8.42;71.56;99269.91;7361238;19;20021;-61
2022/02/17 00:08:00;;;;;;;0.00;0.00;;;;;;;8.53;71.42;99298.97;7365637;19;20037;-61
2022/02/17 00:10:27;;;;;;;0.00;0.00;;;;;;;8.50;71.75;99293.84;7363552;19;20861;-61
2022/02/17 00:12:57;;;;;;;0.00;0.00;;;;;;;8.57;71.29;99305.75;7365962;19;20850;-61
2022/02/17 00:15:23;;;;;;;0.10;0.10;;;;;;;8.55;71.27;99298.91;7367379;19;20054;-61
2022/02/17 00:17:48;;;;;;;0.00;0.00;;;;;;;8.55;71.38;99307.53;7367905;19;20112;-61
2022/02/17 00:20:14;;;;;;;0.00;0.00;;;;;;;8.55;70.82;99304.94;7362191;19;20050;-61
2022/02/17 00:22:40;;;;;;;0.00;0.00;;;;;;;8.52;70.82;99315.47;7365752;19;20022;-62
2022/02/17 00:25:06;;;;;;;0.00;0.00;;;;;;;8.48;70.65;99316.50;7358973;19;20385;-61
2022/02/17 00:27:32;;;;;;;0.00;0.00;;;;;;;8.45;71.14;99334.81;7366916;19;20477;-62
2022/02/17 00:29:58;;;;;;;0.00;0.00;;;;;;;8.30;70.61;99304.09;7364724;19;20010;-61
2022/02/17 00:32:23;;;;;;;0.00;0.00;;;;;;;8.38;71.14;99343.75;7367531;19;20024;-61
2022/02/17 00:34:49;;;;;;;0.10;0.10;;;;;;;8.35;70.73;99342.97;7367724;19;20006;-61
2022/02/17 00:37:14;;;;;;;0.00;0.00;;;;;;;8.30;71.09;99353.53;7372759;19;20010;-61
2022/02/17 00:39:40;;;;;;;0.00;0.00;;;;;;;8.28;70.80;99355.34;7372388;19;20010;-61
2022/02/17 00:42:05;;;;;;;0.00;0.00;;;;;;;8.25;71.14;99371.03;7373701;19;20035;-61
2022/02/17 00:44:31;;;;;;;0.10;0.10;;;;;;;8.23;71.10;99383.25;7372935;19;20029;-61
2022/02/17 00:46:57;;;;;;;0.00;0.00;;;;;;;8.16;71.08;99376.53;7370836;19;20039;-61
2022/02/17 00:49:28;;;;;;;0.00;0.00;;;;;;;8.16;70.91;99403.44;7367042;19;20034;-61
2022/02/17 00:51:54;;;;;;;0.00;0.00;;;;;;;8.13;71.18;99408.72;7358683;19;20019;-61
2022/02/17 00:54:19;;;;;;;0.00;0.00;;;;;;;8.11;71.56;99404.44;7362434;19;20486;-62
2022/02/17 00:56:45;;;;;;;0.00;0.00;;;;;;;8.06;71.22;99402.88;7369013;19;20022;-61
2022/02/17 00:59:12;;;;;;;0.00;0.00;;;;;;;8.05;71.42;99416.75;7366623;19;20006;-61
2022/02/17 01:01:38;;;;;;;0.00;0.00;;;;;;;8.03;71.59;99417.72;7360475;19;20006;-61
2022/02/17 01:04:04;;;;;;;0.00;0.00;;;;;;;8.00;71.35;99429.06;7359355;19;20016;-61
2022/02/17 01:06:30;;;;;;;0.00;0.00;;;;;;;7.99;71.72;99442.97;7359360;19;20006;-61
2022/02/17 01:08:55;;;;;;;0.00;0.00;;;;;;;7.95;71.67;99435.31;7354796;19;20359;-61
2022/02/17 01:11:21;;;;;;;0.00;0.00;;;;;;;7.94;71.30;99439.66;7360985;19;20569;-61
2022/02/17 01:13:46;;;;;;;0.00;0.00;;;;;;;7.92;71.22;99453.63;7366174;19;20016;-61
2022/02/17 01:16:12;;;;;;;0.00;0.00;;;;;;;7.89;71.08;99448.50;7361262;19;20015;-62
2022/02/17 01:18:45;;;;;;;0.00;0.00;;;;;;;7.90;70.96;99458.00;6047114;19;10149569;-61
2022/02/17 01:21:10;;;;;;;0.00;0.00;;;;;;;7.89;71.32;99451.94;2740872;19;10002046;-61
2022/02/17 01:23:36;;;;;;;0.00;0.00;;;;;;;7.89;72.12;99471.91;7356263;19;20117;-61
2022/02/17 01:26:01;;;;;;;0.08;0.08;;;;;;;7.86;71.45;99478.06;7366600;19;20025;-61
2022/02/17 01:28:27;;;;;;;0.00;0.00;;;;;;;7.84;71.82;99479.84;7360799;19;20029;-61
2022/02/17 01:30:52;;;;;;;0.00;0.00;;;;;;;7.85;71.89;99478.94;7366053;19;20019;-61
2022/02/17 01:33:18;;;;;;;0.00;0.00;;;;;;;7.84;71.51;99487.63;7366131;19;20014;-61
2022/02/17 01:35:43;;;;;;;0.00;0.00;;;;;;;7.83;71.44;99488.53;7373922;19;20130;-61
2022/02/17 01:38:08;;;;;;;0.00;0.00;;;;;;;7.83;71.36;99485.09;7369267;19;20011;-61
2022/02/17 01:40:37;;;;;;;0.00;0.00;;;;;;;7.82;71.65;99497.22;7372022;19;20015;-61
2022/02/17 01:43:02;;;;;;;0.00;0.00;;;;;;;7.82;71.71;99501.59;7366126;19;20094;-61
2022/02/17 01:45:28;;;;;;;0.00;0.00;;;;;;;7.80;71.44;99497.25;7356145;19;20045;-61
2022/02/17 01:47:53;;;;;;;0.00;0.00;;;;;;;7.79;71.30;99505.13;7363698;19;20018;-61
2022/02/17 01:50:19;;;;;;;0.00;0.00;;;;;;;7.77;71.72;99518.16;7359544;19;20013;-61
2022/02/17 01:52:45;;;;;;;0.00;0.00;;;;;;;7.77;71.84;99514.72;7359852;19;20490;-61
2022/02/17 01:55:11;;;;;;;0.00;0.00;;;;;;;7.74;71.38;99518.25;7361151;19;20489;-61
2022/02/17 01:57:38;;;;;;;0.10;0.10;;;;;;;7.74;71.51;99520.84;7359116;19;20018;-61
2022/02/17 02:00:05;;;;;;;0.00;0.00;;;;;;;7.62;71.46;99520.38;7365333;19;20031;-61
2022/02/17 02:02:30;;;;;;;0.00;0.00;;;;;;;7.71;71.83;99530.50;7352888;19;20018;-61
2022/02/17 02:04:56;;;;;;;0.00;0.00;;;;;;;7.71;71.81;99546.09;7358449;19;20015;-61
2022/02/17 02:07:21;;;;;;;0.00;0.00;;;;;;;7.70;71.64;99541.75;7364154;19;20343;-61
2022/02/17 02:09:47;;;;;;;0.00;0.00;;;;;;;7.67;71.51;99544.47;7356456;19;20039;-61
2022/02/17 02:12:12;;;;;;;0.00;0.00;;;;;;;7.68;72.11;99557.41;7359156;19;20021;-61
2022/02/17 02:15:07;;;;;;;0.00;0.00;;;;;;;7.69;72.12;99564.31;7355000;19;20025;-61
2022/02/17 02:17:34;;;;;;;0.10;0.10;;;;;;;7.57;71.88;99543.03;7257875;19;2004553;-61
2022/02/17 02:20:03;;;;;;;0.00;0.00;;;;;;;7.71;71.39;99572.06;7371045;19;20018;-61
2022/02/17 02:22:30;;;;;;;0.00;0.00;;;;;;;7.70;71.96;99579.00;7368872;19;20011;-62
2022/02/17 02:24:58;;;;;;;0.00;0.00;;;;;;;7.71;71.50;99579.88;7368195;19;20045;-62
2022/02/17 02:27:24;;;;;;;0.00;0.00;;;;;;;7.66;71.34;99576.56;7373082;19;20026;-61
2022/02/17 02:29:50;;;;;;;0.00;0.00;;;;;;;7.70;71.21;99593.72;7364111;19;20022;-61
2022/02/17 02:32:15;;;;;;;0.00;0.00;;;;;;;7.71;71.40;99582.47;7368152;19;20018;-61
2022/02/17 02:34:41;;;;;;;0.00;0.00;;;;;;;7.72;71.62;99599.75;7367001;19;20043;-61
2022/02/17 02:37:07;;;;;;;0.00;0.00;;;;;;;7.71;71.21;99598.06;7365117;19;20015;-61
2022/02/17 02:39:33;;;;;;;0.00;0.00;;;;;;;7.71;70.71;99592.88;7366150;19;20050;-62
2022/02/17 02:42:00;;;;;;;0.00;0.00;;;;;;;7.72;70.75;99590.22;7365363;19;20110;-61
2022/02/17 02:44:25;;;;;;;0.00;0.00;;;;;;;7.70;70.65;99578.13;7367796;19;22030;-61
2022/02/17 02:46:51;;;;;;;0.10;0.10;;;;;;;7.73;70.65;99591.06;7367977;19;20522;-61
2022/02/17 02:49:16;;;;;;;0.10;0.10;;;;;;;7.73;70.29;99606.66;7370848;19;20018;-62
2022/02/17 02:51:42;;;;;;;0.00;0.00;;;;;;;7.74;70.42;99613.53;7366653;19;20006;-61
2022/02/17 02:54:08;;;;;;;0.10;0.10;;;;;;;7.73;70.28;99623.09;7364149;19;20014;-61
2022/02/17 02:56:33;;;;;;;0.10;0.10;;;;;;;7.75;70.18;99638.63;7366641;19;21341;-61
2022/02/17 02:59:00;;;;;;;0.00;0.00;;;;;;;7.74;70.21;99636.94;7366598;19;20014;-60
2022/02/17 03:01:25;;;;;;;0.00;0.00;;;;;;;7.73;69.89;99641.28;7369065;19;20043;-61
2022/02/17 03:03:51;;;;;;;0.00;0.00;;;;;;;7.74;71.10;99649.94;7355465;19;20010;-61
2022/02/17 03:06:17;;;;;;;0.00;0.00;;;;;;;7.71;70.39;99661.28;7361407;19;20018;-61
2022/02/17 03:08:53;;;;;;;0.00;0.00;;;;;;;7.70;70.61;99653.50;1556013;19;10022553;-62
2022/02/17 03:11:18;;;;;;;0.00;0.00;;;;;;;7.67;70.28;99661.41;7360536;19;20046;-61
2022/02/17 03:13:43;;;;;;;0.00;0.00;;;;;;;7.64;70.23;99653.66;7370728;19;20034;-61
2022/02/17 03:16:09;;;;;;;0.10;0.10;;;;;;;7.62;70.46;99658.06;7368362;19;20027;-61
2022/02/17 03:18:34;;;;;;;0.00;0.00;;;;;;;7.59;70.57;99659.00;7360715;19;20018;-61
2022/02/17 03:21:00;;;;;;;0.00;0.00;;;;;;;7.56;70.75;99658.25;7367605;19;20043;-61
2022/02/17 03:23:25;;;;;;;0.10;0.10;;;;;;;7.51;70.96;99655.78;7358328;19;20685;-61
2022/02/17 03:25:51;;;;;;;0.00;0.00;;;;;;;7.48;70.84;99667.06;7366522;19;20086;-61
2022/02/17 03:28:17;;;;;;;0.10;0.10;;;;;;;7.44;70.61;99660.25;7366813;19;20014;-61
2022/02/17 03:30:42;;;;;;;0.00;0.00;;;;;;;7.43;70.79;99665.50;7354264;19;20026;-61
2022/02/17 03:33:09;;;;;;;0.00;0.00;;;;;;;7.38;71.10;99672.56;7368452;19;20025;-61
2022/02/17 03:35:34;;;;;;;0.00;0.00;;;;;;;7.29;70.59;99663.25;7349472;19;20006;-61
2022/02/17 03:38:00;;;;;;;0.00;0.00;;;;;;;7.32;70.99;99678.78;7364189;19;20034;-61
2022/02/17 03:40:25;;;;;;;0.00;0.00;;;;;;;7.31;70.95;99679.66;7368626;19;20017;-61
2022/02/17 03:42:51;;;;;;;0.10;0.10;;;;;;;7.29;71.23;99684.88;7367541;19;20024;-61
2022/02/17 03:45:16;;;;;;;0.00;0.00;;;;;;;7.27;71.17;99686.66;7354112;19;20038;-61
2022/02/17 03:47:42;;;;;;;0.00;0.00;;;;;;;7.26;71.26;99689.31;7375481;19;20014;-61
2022/02/17 03:50:09;;;;;;;0.00;0.00;;;;;;;7.25;71.08;99690.22;7369041;19;20010;-61
2022/02/17 03:52:36;;;;;;;0.00;0.00;;;;;;;7.23;71.26;99699.78;7363504;19;20022;-62
2022/02/17 03:55:01;;;;;;;0.00;0.00;;;;;;;7.25;71.29;99708.41;7363502;19;20027;-62
2022/02/17 03:57:27;;;;;;;0.00;0.00;;;;;;;7.24;71.63;99709.25;7365722;19;20007;-61
2022/02/17 03:59:52;;;;;;;0.00;0.00;;;;;;;7.28;71.52;99719.53;7360813;19;20007;-61
2022/02/17 04:02:18;;;;;;;0.00;0.00;;;;;;;7.32;71.87;99722.91;7363610;19;20010;-61
2022/02/17 04:04:44;;;;;;;0.00;0.00;;;;;;;7.36;71.79;99739.28;7356064;19;20010;-61
2022/02/17 04:07:10;;;;;;;0.10;0.10;;;;;;;7.37;71.31;99718.47;7365425;19;20707;-61
2022/02/17 04:09:35;;;;;;;0.00;0.00;;;;;;;7.37;71.53;99728.84;7363193;19;20399;-62
2022/02/17 04:12:01;;;;;;;0.00;0.00;;;;;;;7.37;71.00;99739.22;7359541;19;20093;-61
2022/02/17 04:14:26;;;;;;;0.00;0.00;;;;;;;7.37;70.91;99739.22;7361879;19;20454;-61
2022/02/17 04:16:52;;;;;;;0.00;0.00;;;;;;;7.34;70.92;99736.69;7365936;19;20025;-61
2022/02/17 04:19:18;;;;;;;0.00;0.00;;;;;;;7.26;70.40;99729.13;7357396;19;20572;-61
2022/02/17 04:21:44;;;;;;;0.00;0.00;;;;;;;7.13;70.84;99727.69;7358462;19;20862;-62
2022/02/17 04:24:10;;;;;;;0.08;0.08;;;;;;;7.14;71.03;99746.72;7360699;19;20010;-61
2022/02/17 04:26:36;;;;;;;0.00;0.00;;;;;;;7.08;71.15;99747.72;7367203;19;20556;-61
2022/02/17 04:29:01;;;;;;;0.00;0.00;;;;;;;7.08;70.37;99767.63;7356697;19;20666;-61
2022/02/17 04:31:27;;;;;;;0.00;0.00;;;;;;;7.02;70.66;99769.50;7362345;19;20026;-61
2022/02/17 04:33:53;;;;;;;0.00;0.00;;;;;;;6.97;70.36;99776.53;7361414;19;20007;-61
2022/02/17 04:36:18;;;;;;;0.05;0.05;;;;;;;6.87;70.82;99780.22;7362636;19;20018;-61
2022/02/17 04:38:44;;;;;;;0.00;0.00;;;;;;;6.87;70.81;99774.19;7357959;19;20033;-60
2022/02/17 04:43:54;;;;;;;0.00;0.00;;;;;;;6.77;70.39;99794.28;7369506;19;20021;-61
2022/02/17 04:46:20;;;;;;;0.10;0.10;;;;;;;6.63;70.69;99791.97;7364801;19;20667;-62
2022/02/17 04:48:46;;;;;;;0.00;0.00;;;;;;;6.70;70.70;99805.69;7364695;19;20014;-61
2022/02/17 04:51:11;;;;;;;0.00;0.00;;;;;;;6.66;70.37;99822.22;7367373;19;20043;-61
2022/02/17 04:53:37;;;;;;;0.00;0.00;;;;;;;6.62;70.39;99820.56;7359845;19;20025;-61
2022/02/17 04:56:03;;;;;;;0.00;0.00;;;;;;;6.58;70.71;99824.94;7327751;19;41459;-60
2022/02/17 04:58:28;;;;;;;0.00;0.00;;;;;;;6.56;71.02;99828.47;1091224;19;10022888;-61
2022/02/17 05:00:54;;;;;;;0.00;0.00;;;;;;;6.51;70.33;99833.75;7361074;19;20011;-61
2022/02/17 05:03:24;;;;;;;0.00;0.00;;;;;;;6.48;71.24;99833.78;7366358;19;20030;-61
2022/02/17 05:05:51;;;;;;;0.00;0.00;;;;;;;6.45;70.79;99854.63;7357762;19;20014;-61
2022/02/17 05:08:16;;;;;;;0.05;0.05;;;;;;;6.42;70.59;99855.53;7365484;19;20019;-61
2022/02/17 05:10:42;;;;;;;0.00;0.00;;;;;;;6.38;70.64;99853.88;7362026;19;20090;-62
2022/02/17 05:13:07;;;;;;;0.00;0.00;;;;;;;6.36;70.91;99854.78;7364933;19;20018;-60
2022/02/17 05:15:33;;;;;;;0.10;0.10;;;;;;;6.33;71.20;99860.88;7368312;19;20398;-61
2022/02/17 05:17:58;;;;;;;0.00;0.00;;;;;;;6.30;70.53;99865.28;7355684;19;20378;-62
2022/02/17 05:20:24;;;;;;;0.00;0.00;;;;;;;6.22;71.10;99866.25;7358536;19;20041;-61
2022/02/17 05:22:49;;;;;;;0.00;0.00;;;;;;;6.27;71.36;99876.56;7364922;19;20027;-61
2022/02/17 05:25:15;;;;;;;0.10;0.10;;;;;;;6.23;70.78;99885.25;7360220;19;20089;-61
2022/02/17 05:27:41;;;;;;;0.00;0.00;;;;;;;6.18;71.08;99882.78;7364957;19;20027;-61
2022/02/17 05:30:07;;;;;;;0.00;0.00;;;;;;;6.16;70.86;99905.25;7358861;19;20081;-61
2022/02/17 05:32:38;;;;;;;0.00;0.00;;;;;;;6.16;70.90;99900.09;7375128;19;20023;-61
2022/02/17 05:35:04;;;;;;;0.00;0.00;;;;;;;6.12;71.20;99907.94;7369120;19;20019;-61
2022/02/17 05:37:30;;;;;;;0.00;0.00;;;;;;;6.10;71.20;99904.53;7365913;19;20017;-61
2022/02/17 05:39:55;;;;;;;0.08;0.08;;;;;;;6.07;70.96;99902.81;7371463;19;20018;-61
2022/02/17 05:42:21;;;;;;;0.00;0.00;;;;;;;6.04;71.42;99904.63;7366057;19;20015;-61
2022/02/17 05:44:46;;;;;;;0.00;0.00;;;;;;;6.01;71.10;99899.50;7365355;19;20449;-61
2022/02/17 05:47:11;;;;;;;0.00;0.00;;;;;;;5.97;71.49;99896.94;7360314;19;20010;-61
2022/02/17 05:49:37;;;;;;;0.00;0.00;;;;;;;5.94;71.30;99894.41;7365943;19;20501;-61
2022/02/17 05:52:03;;;;;;;0.00;0.00;;;;;;;5.93;71.22;99899.59;7358267;19;20007;-61
2022/02/17 05:54:29;;;;;;;0.00;0.00;;;;;;;5.89;71.06;99891.03;7363516;19;20011;-62
2022/02/17 05:56:54;;;;;;;0.00;0.00;;;;;;;5.87;71.45;99897.94;7366114;19;20010;-61
2022/02/17 05:59:20;;;;;;;0.00;0.00;;;;;;;5.83;71.05;99904.09;7362112;19;20002;-61
2022/02/17 06:01:45;;;;;;;0.00;0.00;;;;;;;5.81;71.10;99918.78;7366371;19;20010;-61
2022/02/17 06:04:11;;;;;;;0.00;0.00;;;;;;;5.77;71.36;99931.78;7372126;19;20006;-62
2022/02/17 06:06:36;;;;;;;0.00;0.00;;;;;;;5.74;70.99;99937.91;7365126;19;20656;-61
2022/02/17 06:09:05;;;;;;;0.00;0.00;;;;;;;5.72;71.11;99934.44;7368058;19;20018;-61
2022/02/17 06:11:31;;;;;;;0.00;0.00;;;;;;;5.68;71.36;99948.34;7365411;19;20012;-60
2022/02/17 06:13:57;;;;;;;0.00;0.00;;;;;;;5.67;71.49;99938.84;7371611;19;20007;-60
2022/02/17 06:16:22;;;;;;;0.00;0.00;;;;;;;5.53;71.41;99935.63;7373109;19;20377;-61
2022/02/17 06:18:48;;;;;;;0.10;0.10;;;;;;;5.58;71.54;99952.81;7373601;19;20006;-61
2022/02/17 06:21:13;;;;;;;0.10;0.10;;;;;;;5.55;71.47;99942.47;7366039;19;20046;-61
2022/02/17 06:23:39;;;;;;;0.10;0.10;;;;;;;5.58;71.79;99941.59;7363962;19;20057;-61
2022/02/17 06:26:04;;;;;;;0.00;0.00;;;;;;;5.45;71.43;99934.00;7363196;19;20014;-61
2022/02/17 06:28:29;;;;;;;0.05;0.05;;;;;;;5.56;71.59;99948.50;7363071;19;20011;-61
2022/02/17 06:30:55;;;;;;;0.10;0.10;;;;;;;5.54;71.71;99958.06;7364085;19;20019;-62
2022/02/17 06:33:21;;;;;;;0.00;0.00;;;;;;;5.54;71.56;99971.00;7365690;19;20621;-61
2022/02/17 06:35:46;;;;;;;0.10;0.10;;;;;;;5.54;71.46;99971.00;7369615;19;20014;-61
2022/02/17 06:38:12;;;;;;;0.10;0.10;;;;;;;5.54;71.55;99971.00;7364381;19;20037;-61
2022/02/17 06:40:37;;;;;;;0.00;0.00;;;;;;;5.53;71.57;99969.28;7362454;19;20490;-61
2022/02/17 06:43:12;;;;;;;0.00;0.00;;;;;;;5.55;71.54;99972.72;7365957;19;20010;-61
2022/02/17 06:45:40;;;;;;;0.00;0.00;;;;;;;5.54;71.72;99971.84;7360579;19;20753;-61
2022/02/17 06:48:19;;;;;;;0.05;0.05;;;;;;;5.56;71.74;99977.00;5102252;19;10002258;-61
2022/02/17 06:50:45;;;;;;;0.00;0.00;;;;;;;5.54;71.83;99986.53;4011580;19;10002003;-61
2022/02/17 06:53:11;;;;;;;0.00;0.00;;;;;;;5.55;71.43;99968.38;7361368;19;20010;-61
2022/02/17 06:55:36;;;;;;;0.03;0.03;;;;;;;5.52;71.58;99978.78;7362099;19;20006;-61
2022/02/17 06:58:02;;;;;;;0.00;0.00;;;;;;;5.56;71.70;99979.59;7368590;19;20027;-61
2022/02/17 07:00:28;;;;;;;0.00;0.00;;;;;;;5.55;72.02;99994.28;7369964;19;20018;-61
2022/02/17 07:02:55;;;;;;;0.00;0.00;;;;;;;5.55;71.73;100001.19;7364002;19;20014;-61
2022/02/17 07:05:22;;;;;;;;;;;;;;;5.56;72.06;100008.09;7368653;19;20481;-61
2022/02/17 07:07:48;;;;;;;0.00;0.00;;;;;;;5.54;71.79;100015.03;7368762;19;19928;-61
2022/02/17 07:10:13;;;;;;;0.00;0.00;;;;;;;5.52;71.39;100001.22;7365833;19;20007;-61
2022/02/17 07:12:43;;;;;;;0.00;0.00;;;;;;;5.49;71.87;99998.69;7364466;19;20094;-61
2022/02/17 07:15:10;;;;;;;0.00;0.00;;;;;;;5.46;72.03;100008.19;7364871;19;20014;-61
2022/02/17 07:17:36;;;;;;;0.00;0.00;;;;;;;5.33;71.93;99972.16;7361309;19;20926;-61
2022/02/17 07:20:02;;;;;;;0.00;0.00;;;;;;;5.42;71.89;99996.19;7370273;19;20047;-61
2022/02/17 07:22:28;;;;;;;0.00;0.00;;;;;;;5.40;71.96;99997.94;7363252;19;20492;-61
2022/02/17 07:24:53;;;;;;;0.00;0.00;;;;;;;5.40;72.27;99984.97;7364638;19;20098;-61
2022/02/17 07:27:19;;;;;;;0.00;0.00;;;;;;;5.39;72.57;99983.28;7366894;19;20041;-61
2022/02/17 07:29:44;;;;;;;0.00;0.00;;;;;;;5.39;72.49;99991.03;7363937;19;20022;-61
2022/02/17 07:32:11;;;;;;;0.00;0.00;;;;;;;5.39;72.79;99996.22;7369111;19;20030;-61
2022/02/17 07:34:36;;;;;;;0.00;0.00;;;;;;;5.40;72.86;99990.16;7349715;19;20760;-61
2022/02/17 07:37:02;;;;;;;0.00;0.00;;;;;;;5.40;72.57;99995.34;7369099;19;20644;-61
2022/02/17 07:39:28;;;;;;;0.00;0.00;;;;;;;5.41;72.51;100004.81;7361970;19;20474;-61
2022/02/17 07:41:53;;;;;;;0.00;0.00;;;;;;;5.42;72.76;99997.91;7369885;19;20011;-61
2022/02/17 07:44:24;;;;;;;0.00;0.00;;;;;;;5.43;73.06;100008.25;7361759;19;20011;-61
2022/02/17 07:46:50;;;;;;;0.00;0.00;;;;;;;5.46;72.95;100010.78;7356657;19;20034;-61
2022/02/17 07:49:15;;;;;;;0.00;0.00;;;;;;;5.47;73.23;100006.47;7367878;19;20026;-61
2022/02/17 07:51:41;;;;;;;0.00;0.00;;;;;;;5.53;73.20;100015.91;7367400;19;20010;-61
2022/02/17 07:54:06;;;;;;;0.00;0.00;;;;;;;5.55;73.45;100008.97;7361448;19;21067;-61
2022/02/17 07:56:32;;;;;;;0.00;0.00;;;;;;;5.61;73.19;100020.09;7356616;19;20816;-61
2022/02/17 07:58:57;;;;;;;0.00;0.00;;;;;;;5.66;73.38;100017.44;7367363;19;20022;-60
2022/02/17 08:01:23;;;;;;;0.10;0.10;;;;;;;5.71;73.44;100031.19;7366579;19;20038;-61
2022/02/17 08:03:48;;;;;;;0.10;0.10;;;;;;;5.76;73.28;100028.53;7368934;19;20010;-61
2022/02/17 08:06:14;;;;;;;0.00;0.00;;;;;;;5.83;73.18;100036.22;7375912;19;20480;-60
2022/02/17 08:08:41;;;;;;;0.05;0.05;;;;;;;5.89;73.13;100030.94;7371635;19;20013;-61
2022/02/17 08:11:06;;;;;;;0.08;0.08;;;;;;;5.94;73.42;100034.34;7367790;19;20010;-61
2022/02/17 08:13:32;;;;;;;0.05;0.05;;;;;;;6.01;72.94;100037.69;7361597;19;20002;-61
2022/02/17 08:15:57;;;;;;;0.00;0.00;;;;;;;6.06;73.15;100042.81;7360573;19;20006;-61
2022/02/17 08:18:23;;;;;;;0.08;0.08;;;;;;;6.12;73.13;100038.38;7355846;19;20007;-61
2022/02/17 08:20:49;;;;;;;0.00;0.00;;;;;;;6.18;73.26;100040.03;7361492;19;20011;-61
2022/02/17 08:23:15;;;;;;;0.00;0.00;;;;;;;6.26;73.33;100045.97;7355260;19;20005;-61
2022/02/17 08:25:40;;;;;;;0.00;0.00;;;;;;;6.33;73.02;100046.72;7369064;19;20379;-61
2022/02/17 08:28:06;;;;;;;0.00;0.00;;;;;;;6.36;73.27;100050.13;7359423;19;20344;-61
2022/02/17 08:30:36;;;;;;;0.00;0.00;;;;;;;6.44;73.33;100050.88;7369584;19;20017;-61
2022/02/17 08:33:03;;;;;;;0.00;0.00;;;;;;;6.49;72.79;100059.44;7356533;19;20401;-61
2022/02/17 08:35:29;;;;;;;0.00;0.00;;;;;;;6.52;72.72;100062.84;7368524;19;20514;-60
2022/02/17 08:38:00;;;;;;;0.03;0.03;;;;;;;6.57;72.53;100063.63;7364008;19;20022;-61
2022/02/17 08:40:27;;;;;;;0.10;0.10;;;;;;;6.61;72.81;100075.66;7357402;19;20018;-59
2022/02/17 08:43:08;;;;;;;0.00;0.00;;;;;;;6.67;73.04;100079.00;4758048;19;10021473;-61
2022/02/17 08:45:42;;;;;;;0.00;0.00;;;;;;;6.73;72.92;100089.28;4611735;19;10002100;-61
2022/02/17 08:48:07;;;;;;;0.05;0.05;;;;;;;6.73;72.25;100093.63;7375582;19;20823;-61
2022/02/17 08:50:34;;;;;;;0.10;0.10;;;;;;;6.78;72.46;100097.00;7375722;19;20010;-61
2022/02/17 08:53:00;;;;;;;0.00;0.00;;;;;;;6.72;72.20;100077.19;7373562;19;20014;-61
2022/02/17 08:55:26;;;;;;;0.08;0.08;;;;;;;6.85;72.32;100098.63;7362965;19;20025;-61
2022/02/17 08:57:53;;;;;;;0.10;0.10;;;;;;;6.88;72.18;100090.75;7366193;19;20007;-62
2022/02/17 09:00:19;;;;;;;0.00;0.00;;;;;;;6.92;72.02;100097.63;7362375;19;20024;-61
2022/02/17 09:02:45;;;;;;;0.00;0.00;;;;;;;6.96;71.79;100104.47;7366006;19;21140;-61
2022/02/17 09:05:10;;;;;;;0.00;0.00;;;;;;;6.98;72.27;100104.44;7361479;19;20038;-61
2022/02/17 09:07:36;;;;;;;0.00;0.00;;;;;;;6.99;71.94;100099.25;7360306;19;20018;-61
2022/02/17 09:10:02;;;;;;;0.00;0.00;;;;;;;6.92;71.74;100083.78;7365555;19;20014;-61
2022/02/17 09:12:35;;;;;;;0.00;0.00;;;;;;;7.07;72.03;100100.81;7363875;19;20014;-61
2022/02/17 09:15:01;;;;;;;0.00;0.00;;;;;;;7.08;71.60;100105.13;7365312;19;20342;-62
2022/02/17 09:17:27;;;;;;;0.00;0.00;;;;;;;7.13;72.27;100124.06;7356392;19;21882;-61
2022/02/17 09:19:52;;;;;;;0.00;0.00;;;;;;;7.15;72.23;100148.28;7367688;19;20021;-61
2022/02/17 09:22:18;;;;;;;0.00;0.00;;;;;;;7.17;71.58;100138.72;7365317;19;20063;-61
2022/02/17 09:24:43;;;;;;;0.00;0.00;;;;;;;7.11;71.65;100120.66;7358823;19;20019;-61
2022/02/17 09:27:09;;;;;;;0.00;0.00;;;;;;;7.26;71.81;100152.41;7366567;19;20089;-61
2022/02/17 09:29:35;;;;;;;0.10;0.10;;;;;;;7.29;72.25;100156.66;7353008;19;20014;-61
2022/02/17 09:32:00;;;;;;;0.00;0.00;;;;;;;7.32;72.25;100145.38;7367456;19;20014;-61
2022/02/17 09:34:26;;;;;;;0.00;0.00;;;;;;;7.35;72.31;100145.31;7354968;19;20010;-61
2022/02/17 09:36:52;;;;;;;0.00;0.00;;;;;;;7.37;72.08;100149.59;7367014;19;20014;-61
2022/02/17 09:39:18;;;;;;;0.00;0.00;;;;;;;7.38;71.75;100148.72;7358853;19;20011;-61
2022/02/17 09:41:43;;;;;;;0.00;0.00;;;;;;;7.34;71.85;100152.25;7364579;19;20015;-61
2022/02/17 09:44:10;;;;;;;0.00;0.00;;;;;;;7.32;72.18;100151.44;7372519;19;20097;-61
2022/02/17 09:46:38;;;;;;;0.00;0.00;;;;;;;7.31;71.79;100154.06;7372568;19;20014;-61
2022/02/17 09:49:04;;;;;;;0.10;0.10;;;;;;;7.25;71.76;100158.50;7368160;19;20018;-61
2022/02/17 09:51:32;;;;;;;0.00;0.00;;;;;;;7.21;71.53;100154.22;7359442;19;20380;-61
2022/02/17 09:53:58;;;;;;;0.00;0.00;;;;;;;7.22;72.23;100152.47;7363978;19;20022;-61
2022/02/17 09:56:25;;;;;;;0.00;0.00;;;;;;;7.19;71.96;100155.13;7362494;19;22024;-61
2022/02/17 09:58:51;;;;;;;0.00;0.00;;;;;;;7.22;72.21;100150.75;7354707;19;20011;-61
2022/02/17 10:01:26;;;;;;;0.00;0.00;;;;;;;7.18;72.05;100143.88;7360558;19;20041;-61
2022/02/17 10:04:09;;;;;;;0.00;0.00;;;;;;;7.27;71.84;100163.66;7364787;19;20015;-61
2022/02/17 10:06:46;;;;;;;0.00;0.00;;;;;;;7.25;72.08;100165.44;7366343;19;20387;-61
2022/02/17 10:09:13;;;;;;;0.00;0.00;;;;;;;7.22;71.89;100168.06;7362683;19;20010;-61
2022/02/17 10:11:39;;;;;;;0.10;0.10;;;;;;;7.15;72.09;100156.09;7354927;19;20134;-59
2022/02/17 10:14:08;;;;;;;0.00;0.00;;;;;;;7.15;72.10;100169.06;7364393;19;20013;-61
2022/02/17 10:16:55;;;;;;;0.10;0.10;;;;;;;7.08;71.75;100159.66;7363656;19;20045;-61
2022/02/17 10:19:26;;;;;;;0.00;0.00;;;;;;;6.99;72.43;100169.31;7362070;19;20007;-61
2022/02/17 10:22:01;;;;;;;0.00;0.00;;;;;;;6.98;72.31;100177.13;7362833;19;20083;-61
2022/02/17 10:24:46;;;;;;;0.10;0.10;;;;;;;6.79;72.46;100158.38;7353625;19;20463;-61
2022/02/17 10:27:17;;;;;;;0.00;0.00;;;;;;;6.85;72.62;100180.81;7354342;19;20069;-61
2022/02/17 10:30:07;;;;;;;0.00;0.00;;;;;;;6.80;72.58;100183.47;7368305;19;20006;-61
2022/02/17 10:32:33;;;;;;;0.00;0.00;;;;;;;6.74;72.65;100200.00;7366401;19;20094;-61
2022/02/17 10:35:12;;;;;;;0.10;0.10;;;;;;;6.74;73.22;100194.81;6750758;19;10000653;-61
2022/02/17 10:37:51;;;;;;;0.05;0.05;;;;;;;6.72;73.01;100190.50;4268554;19;10001289;-62
2022/02/17 10:40:33;;;;;;;0.08;0.08;;;;;;;6.69;73.56;100190.53;7364234;19;20007;-61
2022/02/17 10:43:03;;;;;;;0.00;0.00;;;;;;;6.68;73.22;100191.44;7349088;19;20066;-61
2022/02/17 10:45:29;;;;;;;0.00;0.00;;;;;;;6.66;73.77;100175.03;7369628;19;20011;-61
2022/02/17 10:48:23;;;;;;;0.00;0.00;;;;;;;6.68;73.81;100183.66;7372212;19;20049;-61
2022/02/17 10:51:07;;;;;;;0.00;0.00;;;;;;;6.66;74.05;100188.00;7268516;19;2004367;-61
2022/02/17 10:53:42;;;;;;;0.10;0.10;;;;;;;6.70;74.16;100189.69;7361781;19;20015;-61
2022/02/17 10:56:12;;;;;;;0.00;0.00;;;;;;;6.72;74.27;100193.09;7370015;19;20034;-61
2022/02/17 10:58:46;;;;;;;0.10;0.10;;;;;;;6.76;74.72;100198.22;7353038;19;20065;-61
2022/02/17 11:01:12;;;;;;;0.00;0.00;;;;;;;6.81;74.43;100205.94;7371680;19;20041;-62
2022/02/17 11:03:39;;;;;;;0.00;0.00;;;;;;;6.86;74.58;100201.53;7355042;19;20010;-61
2022/02/17 11:06:06;;;;;;;0.10;0.10;;;;;;;6.92;75.01;100198.84;7364437;19;20397;-61
2022/02/17 11:08:32;;;;;;;0.00;0.00;;;;;;;6.99;74.86;100192.69;7357401;19;20037;-61
2022/02/17 11:10:59;;;;;;;0.00;0.00;;;;;;;7.10;75.29;100191.66;7369557;19;19999;-61
2022/02/17 11:13:26;;;;;;;0.00;0.00;;;;;;;7.18;75.19;100179.38;7361678;19;20010;-61
2022/02/17 11:15:57;;;;;;;0.00;0.00;;;;;;;7.30;74.86;100184.38;7358493;19;20006;-61
2022/02/17 11:18:23;;;;;;;0.00;0.00;;;;;;;7.36;74.62;100193.81;7365150;19;20015;-61
2022/02/17 11:20:50;;;;;;;0.10;0.10;;;;;;;7.42;74.62;100191.94;7358672;19;20018;-61
2022/02/17 11:23:21;;;;;;;0.10;0.10;;;;;;;7.47;74.18;100181.47;7367960;19;20014;-61
2022/02/17 11:25:48;;;;;;;0.00;0.00;;;;;;;7.50;74.16;100173.59;7363308;19;20034;-61
2022/02/17 11:28:15;;;;;;;0.10;0.10;;;;;;;7.53;74.46;100151.03;7365619;19;20014;-61
2022/02/17 11:30:44;;;;;;;;;;;;;;;7.61;74.19;100150.91;7368781;19;20019;-61
2022/02/17 11:33:22;;;;;;;0.00;0.00;;;;;;;7.62;75.23;100149.16;7365810;19;19943;-61
2022/02/17 11:36:08;;;;;;;0.00;0.00;;;;;;;7.83;74.67;100153.91;7363784;19;21804;-61
2022/02/17 11:38:37;;;;;;;0.03;0.03;;;;;;;8.01;74.95;100166.56;7360341;19;20006;-61
2022/02/17 11:41:18;;;;;;;0.00;0.00;;;;;;;8.09;74.60;100153.38;7369110;19;20032;-61